sensor_id;sensor_type;location;lat;lon;timestamp;pressure;altitude;pressure_sealevel;temperature;humidity
73267;BME280;61495;53.400;7.608;2022-09-09T00:01:54;100754.34;;;14.21;80.25
73267;BME280;61495;53.400;7.608;2022-09-09T00:04:27;100738.28;;;14.14;80.49
73267;BME280;61495;53.400;7.608;2022-09-09T00:09:45;100724.25;;;14.12;80.49
73267;BME280;61495;53.400;7.608;2022-09-09T00:12:27;100726.69;;;14.14;80.59
73267;BME280;61495;53.400;7.608;2022-09-09T00:15:02;100728.91;;;14.17;80.41
73267;BME280;61495;53.400;7.608;2022-09-09T00:17:52;100719.31;;;14.09;80.51
73267;BME280;61495;53.400;7.608;2022-09-09T00:23:20;100732.91;;;14.14;80.39
73267;BME280;61495;53.400;7.608;2022-09-09T00:26:00;100712.38;;;14.02;80.93
73267;BME280;61495;53.400;7.608;2022-09-09T00:28:27;100706.28;;;13.95;80.50
73267;BME280;61495;53.400;7.608;2022-09-09T00:30:55;100733.00;;;14.08;80.44
73267;BME280;61495;53.400;7.608;2022-09-09T00:33:24;100720.91;;;13.99;80.38
73267;BME280;61495;53.400;7.608;2022-09-09T00:36:00;100711.56;;;13.89;80.91
73267;BME280;61495;53.400;7.608;2022-09-09T00:38:41;100734.41;;;13.99;80.98
73267;BME280;61495;53.400;7.608;2022-09-09T00:41:26;100734.41;;;13.99;81.41
73267;BME280;61495;53.400;7.608;2022-09-09T00:44:00;100737.34;;;13.97;80.64
73267;BME280;61495;53.400;7.608;2022-09-09T00:57:52;100726.66;;;13.90;81.06
73267;BME280;61495;53.400;7.608;2022-09-09T01:00:19;100727.94;;;13.88;81.44
73267;BME280;61495;53.400;7.608;2022-09-09T01:08:44;100721.25;;;13.79;81.21
73267;BME280;61495;53.400;7.608;2022-09-09T01:11:24;100740.59;;;13.87;81.91
73267;BME280;61495;53.400;7.608;2022-09-09T01:13:58;100741.66;;;13.86;81.64
73267;BME280;61495;53.400;7.608;2022-09-09T01:16:26;100741.41;;;13.88;82.15
73267;BME280;61495;53.400;7.608;2022-09-09T01:18:54;100738.72;;;13.88;82.25
73267;BME280;61495;53.400;7.608;2022-09-09T01:24:29;100730.88;;;13.86;82.10
73267;BME280;61495;53.400;7.608;2022-09-09T01:27:01;100732.50;;;13.87;81.97
73267;BME280;61495;53.400;7.608;2022-09-09T01:29:28;100730.41;;;13.89;82.30
73267;BME280;61495;53.400;7.608;2022-09-09T01:31:59;100717.88;;;13.83;81.91
73267;BME280;61495;53.400;7.608;2022-09-09T01:34:25;100721.28;;;13.90;82.43
73267;BME280;61495;53.400;7.608;2022-09-09T01:36:57;100723.97;;;13.90;82.20
73267;BME280;61495;53.400;7.608;2022-09-09T01:39:25;100703.69;;;13.76;82.56
73267;BME280;61495;53.400;7.608;2022-09-09T01:41:52;100694.91;;;13.81;82.32
73267;BME280;61495;53.400;7.608;2022-09-09T01:44:19;100704.53;;;13.88;81.69
73267;BME280;61495;53.400;7.608;2022-09-09T01:46:45;100694.91;;;13.81;81.82
73267;BME280;61495;53.400;7.608;2022-09-09T01:49:10;100699.03;;;13.83;81.79
73267;BME280;61495;53.400;7.608;2022-09-09T01:51:37;100696.91;;;13.85;81.88
73267;BME280;61495;53.400;7.608;2022-09-09T01:54:04;100691.75;;;13.84;81.97
73267;BME280;61495;53.400;7.608;2022-09-09T01:59:58;100702.28;;;13.85;82.00
73267;BME280;61495;53.400;7.608;2022-09-09T02:04:54;100704.41;;;13.83;81.86
73267;BME280;61495;53.400;7.608;2022-09-09T02:07:42;100676.50;;;13.66;82.03
73267;BME280;61495;53.400;7.608;2022-09-09T02:10:23;100694.69;;;13.82;82.19
73267;BME280;61495;53.400;7.608;2022-09-09T02:12:58;100702.75;;;13.82;81.66
73267;BME280;61495;53.400;7.608;2022-09-09T02:15:52;100698.41;;;13.81;81.90
73267;BME280;61495;53.400;7.608;2022-09-09T02:18:37;100689.63;;;13.74;81.79
73267;BME280;61495;53.400;7.608;2022-09-09T02:21:06;100690.81;;;13.78;81.61
73267;BME280;61495;53.400;7.608;2022-09-09T02:23:33;100693.28;;;13.80;81.89
73267;BME280;61495;53.400;7.608;2022-09-09T02:26:00;100678.88;;;13.74;82.33
73267;BME280;61495;53.400;7.608;2022-09-09T02:28:28;100681.69;;;13.79;82.71
73267;BME280;61495;53.400;7.608;2022-09-09T02:30:55;100683.78;;;13.77;81.75
73267;BME280;61495;53.400;7.608;2022-09-09T02:33:30;100686.50;;;13.77;81.96
73267;BME280;61495;53.400;7.608;2022-09-09T02:36:00;100677.69;;;13.70;82.06
73267;BME280;61495;53.400;7.608;2022-09-09T02:38:29;100686.94;;;13.74;81.93
73267;BME280;61495;53.400;7.608;2022-09-09T02:40:57;100686.78;;;13.69;81.50
73267;BME280;61495;53.400;7.608;2022-09-09T02:43:24;100680.25;;;13.65;81.83
73267;BME280;61495;53.400;7.608;2022-09-09T02:48:43;100686.78;;;13.69;81.79
73267;BME280;61495;53.400;7.608;2022-09-09T02:51:23;100687.25;;;13.66;81.86
73267;BME280;61495;53.400;7.608;2022-09-09T02:54:01;100689.00;;;13.61;81.91
73267;BME280;61495;53.400;7.608;2022-09-09T02:56:29;100689.84;;;13.61;81.65
73267;BME280;61495;53.400;7.608;2022-09-09T02:58:58;100690.19;;;13.65;81.92
73267;BME280;61495;53.400;7.608;2022-09-09T03:01:23;100691.13;;;13.59;82.86
73267;BME280;61495;53.400;7.608;2022-09-09T03:03:49;100695.69;;;13.58;81.77
73267;BME280;61495;53.400;7.608;2022-09-09T03:06:14;100704.34;;;13.60;82.16
73267;BME280;61495;53.400;7.608;2022-09-09T03:08:40;100686.75;;;13.46;82.47
73267;BME280;61495;53.400;7.608;2022-09-09T03:11:07;100701.06;;;13.58;82.99
73267;BME280;61495;53.400;7.608;2022-09-09T03:13:32;100698.38;;;13.58;82.29
73267;BME280;61495;53.400;7.608;2022-09-09T03:15:58;100691.78;;;13.54;82.87
73267;BME280;61495;53.400;7.608;2022-09-09T03:18:25;100701.06;;;13.58;82.99
73267;BME280;61495;53.400;7.608;2022-09-09T03:20:50;100705.41;;;13.59;82.87
73267;BME280;61495;53.400;7.608;2022-09-09T03:23:16;100692.84;;;13.53;82.64
73267;BME280;61495;53.400;7.608;2022-09-09T03:25:48;100687.69;;;13.52;82.49
73267;BME280;61495;53.400;7.608;2022-09-09T03:28:14;100701.06;;;13.58;82.67
73267;BME280;61495;53.400;7.608;2022-09-09T03:30:40;100697.53;;;13.58;83.07
73267;BME280;61495;53.400;7.608;2022-09-09T03:33:05;100697.53;;;13.58;82.81
73267;BME280;61495;53.400;7.608;2022-09-09T03:35:31;100697.31;;;13.59;83.27
73267;BME280;61495;53.400;7.608;2022-09-09T03:37:56;100700.59;;;13.61;82.47
73267;BME280;61495;53.400;7.608;2022-09-09T03:40:22;100692.03;;;13.53;82.29
73267;BME280;61495;53.400;7.608;2022-09-09T03:42:47;100698.72;;;13.62;82.71
73267;BME280;61495;53.400;7.608;2022-09-09T03:45:14;100710.91;;;13.64;82.93
73267;BME280;61495;53.400;7.608;2022-09-09T03:47:39;100694.47;;;13.54;82.42
73267;BME280;61495;53.400;7.608;2022-09-09T03:50:06;100710.91;;;13.64;82.99
73267;BME280;61495;53.400;7.608;2022-09-09T03:52:38;100705.53;;;13.64;83.69
73267;BME280;61495;53.400;7.608;2022-09-09T03:55:05;100701.78;;;13.65;83.35
73267;BME280;61495;53.400;7.608;2022-09-09T03:57:31;100712.09;;;13.68;83.46
73267;BME280;61495;53.400;7.608;2022-09-09T03:59:56;100707.53;;;13.69;82.66
73267;BME280;61495;53.400;7.608;2022-09-09T04:02:23;100697.44;;;13.64;83.09
73267;BME280;61495;53.400;7.608;2022-09-09T04:04:48;100699.47;;;13.69;83.28
73267;BME280;61495;53.400;7.608;2022-09-09T04:07:14;100701.44;;;13.73;82.69
73267;BME280;61495;53.400;7.608;2022-09-09T04:09:39;100704.16;;;13.73;83.02
73267;BME280;61495;53.400;7.608;2022-09-09T04:12:04;100701.91;;;13.70;82.74
73267;BME280;61495;53.400;7.608;2022-09-09T04:14:31;100709.53;;;13.73;83.12
73267;BME280;61495;53.400;7.608;2022-09-09T04:16:57;100706.25;;;13.71;83.46
73267;BME280;61495;53.400;7.608;2022-09-09T04:19:24;100710.34;;;13.74;82.91
73267;BME280;61495;53.400;7.608;2022-09-09T04:21:50;100716.19;;;13.71;83.39
73267;BME280;61495;53.400;7.608;2022-09-09T04:24:17;100718.19;;;13.75;82.62
73267;BME280;61495;53.400;7.608;2022-09-09T04:26:42;100727.34;;;13.74;82.50
73267;BME280;61495;53.400;7.608;2022-09-09T04:29:08;100722.75;;;13.75;82.86
73267;BME280;61495;53.400;7.608;2022-09-09T04:31:34;100715.38;;;13.70;82.21
73267;BME280;61495;53.400;7.608;2022-09-09T04:33:59;100711.72;;;13.65;82.83
73267;BME280;61495;53.400;7.608;2022-09-09T04:36:30;100712.56;;;13.65;83.22
73267;BME280;61495;53.400;7.608;2022-09-09T04:38:56;100724.28;;;13.71;82.73
73267;BME280;61495;53.400;7.608;2022-09-09T04:41:22;100733.19;;;13.71;82.99
73267;BME280;61495;53.400;7.608;2022-09-09T04:43:47;100725.31;;;13.70;82.82
73267;BME280;61495;53.400;7.608;2022-09-09T04:46:12;100733.19;;;13.71;83.23
73267;BME280;61495;53.400;7.608;2022-09-09T04:48:38;100733.19;;;13.71;83.05
73267;BME280;61495;53.400;7.608;2022-09-09T04:51:05;100714.06;;;13.61;82.89
73267;BME280;61495;53.400;7.608;2022-09-09T04:53:31;100735.06;;;13.71;82.73
73267;BME280;61495;53.400;7.608;2022-09-09T04:56:03;100735.41;;;13.74;82.48
73267;BME280;61495;53.400;7.608;2022-09-09T04:58:30;100738.09;;;13.74;82.97
73267;BME280;61495;53.400;7.608;2022-09-09T05:01:02;100726.97;;;13.71;83.58
73267;BME280;61495;53.400;7.608;2022-09-09T05:03:28;100733.97;;;13.72;83.37
73267;BME280;61495;53.400;7.608;2022-09-09T05:05:53;100726.16;;;13.70;83.10
73267;BME280;61495;53.400;7.608;2022-09-09T05:08:19;100731.66;;;13.75;83.47
73267;BME280;61495;53.400;7.608;2022-09-09T05:10:46;100739.88;;;13.80;84.12
73267;BME280;61495;53.400;7.608;2022-09-09T05:13:11;100737.19;;;13.80;83.91
73267;BME280;61495;53.400;7.608;2022-09-09T05:15:36;100739.63;;;13.82;84.46
73267;BME280;61495;53.400;7.608;2022-09-09T05:18:03;100741.66;;;13.86;83.83
73267;BME280;61495;53.400;7.608;2022-09-09T05:20:29;100743.28;;;13.87;83.79
73267;BME280;61495;53.400;7.608;2022-09-09T05:22:55;100747.63;;;13.88;83.70
73267;BME280;61495;53.400;7.608;2022-09-09T05:25:22;100740.59;;;13.87;84.78
73267;BME280;61495;53.400;7.608;2022-09-09T05:27:49;100739.19;;;13.85;83.79
73267;BME280;61495;53.400;7.608;2022-09-09T05:30:15;100755.59;;;13.95;84.35
73267;BME280;61495;53.400;7.608;2022-09-09T05:32:40;100738.72;;;13.88;83.99
73267;BME280;61495;53.400;7.608;2022-09-09T05:35:06;100748.94;;;13.98;83.84
73267;BME280;61495;53.400;7.608;2022-09-09T05:37:31;100747.28;;;13.97;85.25
73267;BME280;61495;53.400;7.608;2022-09-09T05:39:57;100751.63;;;13.98;85.69
73267;BME280;61495;53.400;7.608;2022-09-09T05:42:23;100754.69;;;14.01;84.66
73267;BME280;61495;53.400;7.608;2022-09-09T05:44:48;100752.56;;;14.03;84.52
73267;BME280;61495;53.400;7.608;2022-09-09T05:47:13;100750.69;;;14.04;84.98
73267;BME280;61495;53.400;7.608;2022-09-09T05:49:40;100735.22;;;13.99;84.61
73267;BME280;61495;53.400;7.608;2022-09-09T05:52:05;100743.44;;;14.04;83.75
73267;BME280;61495;53.400;7.608;2022-09-09T05:54:31;100737.69;;;14.01;84.24
73267;BME280;61495;53.400;7.608;2022-09-09T05:56:57;100755.75;;;14.12;83.97
73267;BME280;61495;53.400;7.608;2022-09-09T05:59:23;100754.47;;;14.14;84.37
73267;BME280;61495;53.400;7.608;2022-09-09T06:01:48;100743.78;;;14.08;83.40
73267;BME280;61495;53.400;7.608;2022-09-09T06:04:14;100757.50;;;14.18;83.92
73267;BME280;61495;53.400;7.608;2022-09-09T06:06:40;100751.53;;;14.16;84.32
73267;BME280;61495;53.400;7.608;2022-09-09T06:09:07;100763.47;;;14.20;84.48
73267;BME280;61495;53.400;7.608;2022-09-09T06:11:37;100757.06;;;14.21;83.80
73267;BME280;61495;53.400;7.608;2022-09-09T06:14:04;100761.41;;;14.22;84.62
73267;BME280;61495;53.400;7.608;2022-09-09T06:16:31;100757.63;;;14.23;84.06
73267;BME280;61495;53.400;7.608;2022-09-09T06:18:58;100761.97;;;14.24;83.62
73267;BME280;61495;53.400;7.608;2022-09-09T06:21:27;100752.84;;;14.25;83.48
73267;BME280;61495;53.400;7.608;2022-09-09T06:23:53;100766.91;;;14.27;83.15
73267;BME280;61495;53.400;7.608;2022-09-09T06:26:23;100765.50;;;14.24;83.22
73267;BME280;61495;53.400;7.608;2022-09-09T06:28:52;100772.03;;;14.28;83.16
73267;BME280;61495;53.400;7.608;2022-09-09T06:31:19;100767.13;;;14.25;84.47
73267;BME280;61495;53.400;7.608;2022-09-09T06:33:50;100762.56;;;14.26;83.40
73267;BME280;61495;53.400;7.608;2022-09-09T06:36:19;100774.53;;;14.30;84.54
73267;BME280;61495;53.400;7.608;2022-09-09T06:38:45;100774.53;;;14.30;83.43
73267;BME280;61495;53.400;7.608;2022-09-09T06:41:13;100763.38;;;14.26;83.77
73267;BME280;61495;53.400;7.608;2022-09-09T06:43:39;100767.13;;;14.25;84.55
73267;BME280;61495;53.400;7.608;2022-09-09T06:46:08;100769.53;;;14.33;83.72
73267;BME280;61495;53.400;7.608;2022-09-09T06:48:35;100776.53;;;14.34;83.51
73267;BME280;61495;53.400;7.608;2022-09-09T06:51:09;100777.34;;;14.35;83.70
73267;BME280;61495;53.400;7.608;2022-09-09T06:53:37;100783.94;;;14.39;83.76
73267;BME280;61495;53.400;7.608;2022-09-09T06:58:40;100769.53;;;14.33;83.40
73267;BME280;61495;53.400;7.608;2022-09-09T07:01:14;100782.44;;;14.43;83.68
73267;BME280;61495;53.400;7.608;2022-09-09T07:03:41;100776.44;;;14.41;83.52
73267;BME280;61495;53.400;7.608;2022-09-09T07:06:54;100770.22;;;14.40;83.63
73267;BME280;61495;53.400;7.608;2022-09-09T07:09:09;100785.81;;;14.50;83.88
73267;BME280;61495;53.400;7.608;2022-09-09T07:11:40;100792.41;;;14.54;83.84
73267;BME280;61495;53.400;7.608;2022-09-09T07:14:09;100787.56;;;14.56;83.09
73267;BME280;61495;53.400;7.608;2022-09-09T07:16:41;100780.66;;;14.60;83.39
73267;BME280;61495;53.400;7.608;2022-09-09T07:19:07;100757.19;;;14.49;83.52
73267;BME280;61495;53.400;7.608;2022-09-09T07:21:34;100783.84;;;14.69;84.07
73267;BME280;61495;53.400;7.608;2022-09-09T07:24:00;100782.28;;;14.73;83.90
73267;BME280;61495;53.400;7.608;2022-09-09T07:26:29;100789.44;;;14.79;83.42
73267;BME280;61495;53.400;7.608;2022-09-09T07:28:55;100787.34;;;14.81;84.80
73267;BME280;61495;53.400;7.608;2022-09-09T07:31:30;100785.81;;;14.85;83.71
73267;BME280;61495;53.400;7.608;2022-09-09T07:34:02;100781.84;;;14.87;83.45
73267;BME280;61495;53.400;7.608;2022-09-09T07:36:34;100781.59;;;14.89;84.26
73267;BME280;61495;53.400;7.608;2022-09-09T07:39:05;100788.63;;;15.01;84.20
73267;BME280;61495;53.400;7.608;2022-09-09T07:41:33;100785.44;;;15.05;83.87
73267;BME280;61495;53.400;7.608;2022-09-09T07:44:05;100783.31;;;15.07;84.82
73267;BME280;61495;53.400;7.608;2022-09-09T07:46:31;100781.53;;;15.12;84.22
73267;BME280;61495;53.400;7.608;2022-09-09T07:48:57;100785.16;;;15.18;84.34
73267;BME280;61495;53.400;7.608;2022-09-09T07:51:29;100782.00;;;15.21;84.08
73267;BME280;61495;53.400;7.608;2022-09-09T07:53:58;100789.75;;;15.29;83.76
73267;BME280;61495;53.400;7.608;2022-09-09T07:56:24;100791.47;;;15.35;83.40
73267;BME280;61495;53.400;7.608;2022-09-09T07:58:52;100781.38;;;15.30;83.50
73267;BME280;61495;53.400;7.608;2022-09-09T08:01:23;100787.00;;;15.40;84.11
73267;BME280;61495;53.400;7.608;2022-09-09T08:04:13;100795.00;;;15.47;84.55
73267;BME280;61495;53.400;7.608;2022-09-09T08:06:44;100783.94;;;15.48;84.44
73267;BME280;61495;53.400;7.608;2022-09-09T08:09:11;100784.47;;;15.62;83.69
73267;BME280;61495;53.400;7.608;2022-09-09T08:11:38;100793.25;;;15.69;84.17
73267;BME280;61495;53.400;7.608;2022-09-09T08:14:04;100779.41;;;15.66;83.55
73267;BME280;61495;53.400;7.608;2022-09-09T08:16:32;100788.84;;;15.80;84.10
73267;BME280;61495;53.400;7.608;2022-09-09T08:18:58;100786.00;;;15.86;82.81
73267;BME280;61495;53.400;7.608;2022-09-09T08:21:29;100779.56;;;15.87;83.32
73267;BME280;61495;53.400;7.608;2022-09-09T08:23:56;100778.91;;;15.97;83.35
73267;BME280;61495;53.400;7.608;2022-09-09T08:26:24;100785.78;;;16.04;82.83
73267;BME280;61495;53.400;7.608;2022-09-09T08:28:52;100779.19;;;16.12;83.03
73267;BME280;61495;53.400;7.608;2022-09-09T08:31:23;100785.81;;;16.21;82.97
73267;BME280;61495;53.400;7.608;2022-09-09T08:33:48;100778.84;;;16.25;82.87
73267;BME280;61495;53.400;7.608;2022-09-09T08:36:16;100787.38;;;16.34;82.56
73267;BME280;61495;53.400;7.608;2022-09-09T08:38:43;100785.41;;;16.46;82.04
73267;BME280;61495;53.400;7.608;2022-09-09T08:50:19;100794.94;;;17.47;82.44
73267;BME280;61495;53.400;7.608;2022-09-09T08:53:09;100806.19;;;17.82;81.48
73267;BME280;61495;53.400;7.608;2022-09-09T08:58:29;100791.31;;;18.11;80.32
73267;BME280;61495;53.400;7.608;2022-09-09T09:04:00;100789.53;;;18.54;79.85
73267;BME280;61495;53.400;7.608;2022-09-09T09:09:08;100796.38;;;19.03;78.00
73267;BME280;61495;53.400;7.608;2022-09-09T09:11:52;100795.94;;;19.26;77.72
73267;BME280;61495;53.400;7.608;2022-09-09T09:14:26;100787.06;;;19.51;78.11
73267;BME280;61495;53.400;7.608;2022-09-09T09:17:03;100802.41;;;19.77;77.62
73267;BME280;61495;53.400;7.608;2022-09-09T09:19:31;100790.69;;;19.87;75.89
73267;BME280;61495;53.400;7.608;2022-09-09T09:22:13;100801.09;;;20.10;75.95
73267;BME280;61495;53.400;7.608;2022-09-09T09:28:15;100790.78;;;20.58;73.80
73267;BME280;61495;53.400;7.608;2022-09-09T09:33:29;100792.88;;;20.96;71.44
73267;BME280;61495;53.400;7.608;2022-09-09T09:35:55;100799.09;;;21.06;71.11
73267;BME280;61495;53.400;7.608;2022-09-09T09:38:24;100806.97;;;21.28;71.94
73267;BME280;61495;53.400;7.608;2022-09-09T09:40:56;100792.97;;;21.50;71.88
73267;BME280;61495;53.400;7.608;2022-09-09T09:43:31;100800.28;;;21.65;70.30
73267;BME280;61495;53.400;7.608;2022-09-09T09:45:58;100800.72;;;21.77;69.63
73267;BME280;61495;53.400;7.608;2022-09-09T09:48:24;100808.03;;;21.86;70.14
73267;BME280;61495;53.400;7.608;2022-09-09T09:53:25;100814.53;;;22.00;68.43
73267;BME280;61495;53.400;7.608;2022-09-09T09:56:02;100817.00;;;22.02;67.18
73267;BME280;61495;53.400;7.608;2022-09-09T09:58:33;100810.34;;;22.18;66.46
73267;BME280;61495;53.400;7.608;2022-09-09T10:01:02;100812.34;;;22.36;67.39
73267;BME280;61495;53.400;7.608;2022-09-09T10:03:33;100813.41;;;22.40;68.00
73267;BME280;61495;53.400;7.608;2022-09-09T10:06:03;100809.59;;;22.41;67.16
73267;BME280;61495;53.400;7.608;2022-09-09T10:08:29;100807.13;;;22.45;66.69
73267;BME280;61495;53.400;7.608;2022-09-09T10:19:00;100820.47;;;22.80;65.40
73267;BME280;61495;53.400;7.608;2022-09-09T10:24:27;100816.63;;;23.10;65.34
73267;BME280;61495;53.400;7.608;2022-09-09T10:27:05;100819.97;;;23.25;64.75
73267;BME280;61495;53.400;7.608;2022-09-09T10:32:35;100818.38;;;23.48;64.26
73267;BME280;61495;53.400;7.608;2022-09-09T10:42:51;100817.94;;;23.78;64.54
73267;BME280;61495;53.400;7.608;2022-09-09T10:45:32;100805.97;;;23.74;61.99
73267;BME280;61495;53.400;7.608;2022-09-09T10:48:23;100826.63;;;23.86;61.50
73267;BME280;61495;53.400;7.608;2022-09-09T10:56:38;100840.31;;;23.86;58.84
73267;BME280;61495;53.400;7.608;2022-09-09T10:59:14;100813.97;;;23.90;59.24
73267;BME280;61495;53.400;7.608;2022-09-09T11:01:53;100821.16;;;24.04;60.08
73267;BME280;61495;53.400;7.608;2022-09-09T11:04:25;100818.13;;;24.24;61.98
73267;BME280;61495;53.400;7.608;2022-09-09T11:06:55;100822.03;;;24.37;61.15
73267;BME280;61495;53.400;7.608;2022-09-09T11:09:30;100821.50;;;24.35;58.60
73267;BME280;61495;53.400;7.608;2022-09-09T11:12:00;100824.84;;;24.32;58.29
73267;BME280;61495;53.400;7.608;2022-09-09T11:14:42;100831.13;;;24.32;58.19
73267;BME280;61495;53.400;7.608;2022-09-09T11:17:17;100833.38;;;24.30;58.23
73267;BME280;61495;53.400;7.608;2022-09-09T11:19:44;100838.75;;;24.36;59.82
73267;BME280;61495;53.400;7.608;2022-09-09T11:22:32;100844.59;;;24.29;59.25
73267;BME280;61495;53.400;7.608;2022-09-09T11:25:21;100831.97;;;24.14;59.57
73267;BME280;61495;53.400;7.608;2022-09-09T11:30:29;100816.75;;;23.85;60.39
73267;BME280;61495;53.400;7.608;2022-09-09T11:33:25;100849.59;;;23.85;61.05
73267;BME280;61495;53.400;7.608;2022-09-09T11:37:12;100829.06;;;23.68;61.08
73267;BME280;61495;53.400;7.608;2022-09-09T11:44:37;100827.41;;;23.20;63.52
73267;BME280;61495;53.400;7.608;2022-09-09T11:47:02;100821.53;;;23.08;63.80
73267;BME280;61495;53.400;7.608;2022-09-09T11:49:41;100827.06;;;23.03;63.75
73267;BME280;61495;53.400;7.608;2022-09-09T11:52:13;100824.41;;;22.98;64.52
73267;BME280;61495;53.400;7.608;2022-09-09T11:54:49;100823.34;;;22.94;64.61
73267;BME280;61495;53.400;7.608;2022-09-09T11:57:34;100817.28;;;22.97;64.30
73267;BME280;61495;53.400;7.608;2022-09-09T12:00:01;100809.66;;;22.94;64.93
73267;BME280;61495;53.400;7.608;2022-09-09T12:02:28;100822.13;;;23.05;64.96
73267;BME280;61495;53.400;7.608;2022-09-09T12:05:07;100819.34;;;23.10;63.55
73267;BME280;61495;53.400;7.608;2022-09-09T12:07:42;100815.66;;;23.19;63.19
73267;BME280;61495;53.400;7.608;2022-09-09T12:10:32;100813.56;;;23.35;63.03
73267;BME280;61495;53.400;7.608;2022-09-09T12:13:22;100808.47;;;23.52;62.96
73267;BME280;61495;53.400;7.608;2022-09-09T12:15:53;100807.81;;;23.60;62.76
73267;BME280;61495;53.400;7.608;2022-09-09T12:23:47;100795.09;;;23.88;61.44
73267;BME280;61495;53.400;7.608;2022-09-09T12:26:41;100795.69;;;24.04;61.95
73267;BME280;61495;53.400;7.608;2022-09-09T12:29:27;100802.66;;;24.15;60.39
73267;BME280;61495;53.400;7.608;2022-09-09T12:32:01;100801.78;;;24.19;59.87
73267;BME280;61495;53.400;7.608;2022-09-09T12:34:33;100789.16;;;24.37;60.30
73267;BME280;61495;53.400;7.608;2022-09-09T12:40:00;100789.50;;;24.81;58.67
73267;BME280;61495;53.400;7.608;2022-09-09T12:42:28;100789.00;;;25.07;59.57
73267;BME280;61495;53.400;7.608;2022-09-09T12:44:58;100782.72;;;25.20;57.00
73267;BME280;61495;53.400;7.608;2022-09-09T12:47:44;100787.88;;;25.35;56.45
73267;BME280;61495;53.400;7.608;2022-09-09T12:50:19;100783.63;;;25.56;57.41
73267;BME280;61495;53.400;7.608;2022-09-09T12:52:47;100784.53;;;25.65;57.86
73267;BME280;61495;53.400;7.608;2022-09-09T12:55:18;100782.06;;;25.77;56.51
73267;BME280;61495;53.400;7.608;2022-09-09T12:57:47;100770.25;;;25.77;56.20
73267;BME280;61495;53.400;7.608;2022-09-09T13:02:50;100769.63;;;25.80;56.49
73267;BME280;61495;53.400;7.608;2022-09-09T13:05:22;100775.31;;;25.83;58.68
73267;BME280;61495;53.400;7.608;2022-09-09T13:07:48;100786.19;;;25.88;59.38
73267;BME280;61495;53.400;7.608;2022-09-09T13:10:21;100791.41;;;25.76;57.80
73267;BME280;61495;53.400;7.608;2022-09-09T13:12:47;100793.47;;;25.16;57.31
73267;BME280;61495;53.400;7.608;2022-09-09T13:15:20;100772.75;;;24.51;54.43
73267;BME280;61495;53.400;7.608;2022-09-09T13:17:52;100757.28;;;24.09;55.27
73267;BME280;61495;53.400;7.608;2022-09-09T13:20:19;100756.09;;;24.15;58.02
73267;BME280;61495;53.400;7.608;2022-09-09T13:22:47;100761.72;;;24.05;58.10
73267;BME280;61495;53.400;7.608;2022-09-09T13:25:26;100760.06;;;23.90;59.25
73267;BME280;61495;53.400;7.608;2022-09-09T13:28:03;100758.78;;;23.83;59.56
73267;BME280;61495;53.400;7.608;2022-09-09T13:30:33;100754.81;;;23.75;60.54
73267;BME280;61495;53.400;7.608;2022-09-09T13:35:35;100753.16;;;23.55;61.64
73267;BME280;61495;53.400;7.608;2022-09-09T13:38:14;100764.84;;;23.61;61.93
73267;BME280;61495;53.400;7.608;2022-09-09T13:40:39;100780.50;;;23.55;62.61
73267;BME280;61495;53.400;7.608;2022-09-09T13:43:05;100766.81;;;23.37;61.41
73267;BME280;61495;53.400;7.608;2022-09-09T13:45:40;100767.97;;;23.31;61.06
73267;BME280;61495;53.400;7.608;2022-09-09T13:48:09;100770.75;;;23.25;61.15
73267;BME280;61495;53.400;7.608;2022-09-09T13:50:35;100769.50;;;23.18;61.15
73267;BME280;61495;53.400;7.608;2022-09-09T13:53:01;100775.06;;;23.08;60.79
73267;BME280;61495;53.400;7.608;2022-09-09T13:55:27;100768.00;;;23.07;61.70
73267;BME280;61495;53.400;7.608;2022-09-09T13:57:58;100770.81;;;22.97;61.67
73267;BME280;61495;53.400;7.608;2022-09-09T14:00:25;100778.56;;;22.90;62.04
73267;BME280;61495;53.400;7.608;2022-09-09T14:02:51;100791.63;;;22.93;62.02
73267;BME280;61495;53.400;7.608;2022-09-09T14:05:18;100787.75;;;22.99;61.90
73267;BME280;61495;53.400;7.608;2022-09-09T14:07:44;100781.00;;;22.91;61.81
73267;BME280;61495;53.400;7.608;2022-09-09T14:10:10;100801.47;;;22.94;61.42
73267;BME280;61495;53.400;7.608;2022-09-09T14:12:36;100795.38;;;23.02;61.71
73267;BME280;61495;53.400;7.608;2022-09-09T14:15:03;100788.31;;;22.96;57.98
73267;BME280;61495;53.400;7.608;2022-09-09T14:17:28;100796.34;;;23.11;60.94
73267;BME280;61495;53.400;7.608;2022-09-09T14:19:55;100794.94;;;23.13;60.93
73267;BME280;61495;53.400;7.608;2022-09-09T14:22:21;100797.50;;;23.05;59.97
73267;BME280;61495;53.400;7.608;2022-09-09T14:24:47;100813.06;;;23.09;60.68
73267;BME280;61495;53.400;7.608;2022-09-09T14:27:12;100808.44;;;23.05;60.63
73267;BME280;61495;53.400;7.608;2022-09-09T14:29:37;100806.84;;;23.04;61.23
73267;BME280;61495;53.400;7.608;2022-09-09T14:32:03;100794.38;;;22.93;61.57
73267;BME280;61495;53.400;7.608;2022-09-09T14:34:28;100786.72;;;22.95;62.00
73267;BME280;61495;53.400;7.608;2022-09-09T14:36:54;100780.28;;;22.81;61.89
73267;BME280;61495;53.400;7.608;2022-09-09T14:39:19;100783.91;;;22.76;62.18
73267;BME280;61495;53.400;7.608;2022-09-09T14:41:44;100779.34;;;22.66;62.28
73267;BME280;61495;53.400;7.608;2022-09-09T14:44:11;100770.44;;;22.51;62.80
73267;BME280;61495;53.400;7.608;2022-09-09T14:46:36;100765.38;;;22.39;62.93
73267;BME280;61495;53.400;7.608;2022-09-09T14:49:01;100761.66;;;22.25;63.24
73267;BME280;61495;53.400;7.608;2022-09-09T14:51:27;100754.09;;;22.17;63.14
73267;BME280;61495;53.400;7.608;2022-09-09T14:53:57;100750.84;;;22.15;63.41
73267;BME280;61495;53.400;7.608;2022-09-09T14:56:25;100745.47;;;22.05;63.46
73267;BME280;61495;53.400;7.608;2022-09-09T14:58:55;100759.22;;;21.90;63.28